< Typhoon 199310 1993 Season Typhoon 199312 >
Typhoon 199311 (VERNON)
General InformationTrack Information on Google MapsDetailed Wind InformationList of All Images || NewsDisaster Info.ResourceGoogle EarthGE AnimationAtom FeedGeoJSON
Detalied Best Track (Time Zone = UTC)
Year Month Day Hour Lat. Long. Pressure (hPa) Wind (kt) Class Image Chart
1993 8 21 12 18.6 153.6 1006 0 2 Image Chart
1993 8 21 18 18.8 153.4 1004 0 2 Image Chart
1993 8 22 00 19.0 153.2 1002 0 2 Image Chart
1993 8 22 06 19.2 153.1 998 35 3 Image Chart
1993 8 22 12 19.6 152.9 996 35 3 Image Chart
1993 8 22 18 20.0 152.6 994 40 3 Image Chart
1993 8 23 00 20.6 152.0 994 40 3 Image Chart
1993 8 23 06 21.4 151.5 990 45 3 Image Chart
1993 8 23 12 22.4 150.7 985 50 4 Image Chart
1993 8 23 18 23.0 149.9 985 50 4 Image Chart
1993 8 24 00 23.6 149.3 980 55 4 Image Chart
1993 8 24 06 24.4 148.8 980 55 4 Image Chart
1993 8 24 12 25.1 148.2 980 55 4 Image Chart
1993 8 24 18 25.9 147.5 980 55 4 Image Chart
1993 8 25 00 26.7 146.7 980 55 4 Image Chart
1993 8 25 03 27.3 146.1 975 60 4 Image Chart
1993 8 25 06 27.9 145.4 970 65 5 Image Chart
1993 8 25 09 28.3 144.6 970 65 5 Image Chart
1993 8 25 12 28.6 143.8 965 70 5 Image Chart
1993 8 25 15 28.8 143.2 965 70 5 Image Chart
1993 8 25 18 29.0 142.7 965 70 5 Image Chart
1993 8 25 21 29.3 142.0 965 70 5 Image Chart
1993 8 26 00 29.7 141.5 965 70 5 Image Chart
1993 8 26 03 30.0 141.2 965 70 5 Image Chart
1993 8 26 06 30.5 141.0 965 65 5 Image Chart
1993 8 26 09 30.9 140.9 965 65 5 Image Chart
1993 8 26 12 31.4 140.8 970 65 5 Image Chart
1993 8 26 15 32.0 140.7 970 65 5 Image Chart
1993 8 26 18 32.6 140.6 970 65 5 Image Chart
1993 8 26 21 33.2 140.6 970 65 5 Image Chart
1993 8 27 00 33.9 140.6 970 65 5 Image Chart
1993 8 27 03 35.0 140.6 970 65 5 Image Chart
1993 8 27 06 35.6 140.8 970 65 5 Image Chart
1993 8 27 09 36.3 141.1 975 60 4 Image Chart
1993 8 27 12 37.1 141.5 975 60 4 Image Chart
1993 8 27 15 38.0 141.9 975 60 4 Image Chart
1993 8 27 18 39.1 142.4 975 60 4 Image Chart
1993 8 27 21 40.5 143.2 975 60 4 Image Chart
1993 8 28 00 41.9 143.8 980 55 4 Image Chart
1993 8 28 02 42.8 144.2 980 55 4 Image Chart
1993 8 28 03 43.3 144.4 980 50 4 Image Chart
1993 8 28 06 44.7 145.1 986 0 6 Image Chart
1993 8 28 12 46.5 146.0 988 0 6 Image Chart
1993 8 28 18 48.5 147.0 990 0 6 Image Chart
1993 8 29 00 50.0 147.5 992 0 6 Image Chart
1993 8 29 06 51.5 148.0 994 0 6 Image Chart
1993 8 29 12 53.0 149.0 994 0 6 Image Chart
1993 8 29 18 54.0 150.5 994 0 6 Image Chart
1993 8 30 00 55.0 152.0 996 0 6 Image Chart
1993 8 30 06 56.0 154.0 996 0 6 Image Chart
1993 8 30 12 57.0 156.0 996 0 6 Image Chart
1993 8 30 18 57.5 158.5 994 0 6 Image Chart
Japan Meteorological Agency Best Track Data | Correction Date : 1994-01-10
< Typhoon 199310 1993 Season Typhoon 199312 >

Help